Map

Track Data

SID SEASON NUMBER BASIN SUBBASIN NAME ISO_TIME NATURE LAT LON WMO_WIND WMO_PRES WMO_AGENCY TRACK_TYPE DIST2LAND LANDFALL IFLAG USA_AGENCY USA_ATCF_ID USA_LAT USA_LON USA_RECORD USA_STATUS USA_WIND USA_PRES USA_SSHS USA_R34_NE USA_R34_SE USA_R34_SW USA_R34_NW USA_R50_NE USA_R50_SE USA_R50_SW USA_R50_NW USA_R64_NE USA_R64_SE USA_R64_SW USA_R64_NW USA_POCI USA_ROCI USA_RMW USA_EYE TOKYO_LAT TOKYO_LON TOKYO_GRADE TOKYO_WIND TOKYO_PRES TOKYO_R50_DIR TOKYO_R50_LONG TOKYO_R50_SHORT TOKYO_R30_DIR TOKYO_R30_LONG TOKYO_R30_SHORT TOKYO_LAND CMA_LAT CMA_LON CMA_CAT CMA_WIND CMA_PRES HKO_LAT HKO_LON HKO_CAT HKO_WIND HKO_PRES NEWDELHI_LAT NEWDELHI_LON NEWDELHI_GRADE NEWDELHI_WIND NEWDELHI_PRES NEWDELHI_CI NEWDELHI_DP NEWDELHI_POCI REUNION_LAT REUNION_LON REUNION_TYPE REUNION_WIND REUNION_PRES REUNION_TNUM REUNION_CI REUNION_RMW REUNION_R34_NE REUNION_R34_SE REUNION_R34_SW REUNION_R34_NW REUNION_R50_NE REUNION_R50_SE REUNION_R50_SW REUNION_R50_NW REUNION_R64_NE REUNION_R64_SE REUNION_R64_SW REUNION_R64_NW BOM_LAT BOM_LON BOM_TYPE BOM_WIND BOM_PRES BOM_TNUM BOM_CI BOM_RMW BOM_R34_NE BOM_R34_SE BOM_R34_SW BOM_R34_NW BOM_R50_NE BOM_R50_SE BOM_R50_SW BOM_R50_NW BOM_R64_NE BOM_R64_SE BOM_R64_SW BOM_R64_NW BOM_ROCI BOM_POCI BOM_EYE BOM_POS_METHOD BOM_PRES_METHOD NADI_LAT NADI_LON NADI_CAT NADI_WIND NADI_PRES WELLINGTON_LAT WELLINGTON_LON WELLINGTON_WIND WELLINGTON_PRES DS824_LAT DS824_LON DS824_STAGE DS824_WIND DS824_PRES TD9636_LAT TD9636_LON TD9636_STAGE TD9636_WIND TD9636_PRES TD9635_LAT TD9635_LON TD9635_WIND TD9635_PRES TD9635_ROCI NEUMANN_LAT NEUMANN_LON NEUMANN_CLASS NEUMANN_WIND NEUMANN_PRES MLC_LAT MLC_LON MLC_CLASS MLC_WIND MLC_PRES USA_GUST BOM_GUST BOM_GUST_PER REUNION_GUST REUNION_GUST_PER USA_SEAHGT USA_SEARAD_NE USA_SEARAD_SE USA_SEARAD_SW USA_SEARAD_NW STORM_SPEED STORM_DIR
1995210N26273 1995 37 NA GM DEAN 1995-07-28 18:00:00 TS 26.2000 -86.6000 25 1009 hurdat_atl main 397 385 O_____________ hurdat_atl AL041995 26.2000 -86.6000 TD 25 1009 -1 7 258
1995210N26273 1995 37 NA GM DEAN 1995-07-28 21:00:00 TS 26.1302 -86.9552 main 384 369 P_____________ AL041995 26.1302 -86.9552 TD 27 1008 -1 6 261
1995210N26273 1995 37 NA GM DEAN 1995-07-29 00:00:00 TS 26.1000 -87.3000 30 1008 hurdat_atl main 369 355 O_____________ hurdat_atl AL041995 26.1000 -87.3000 TD 30 1008 -1 6 270
1995210N26273 1995 37 NA GM DEAN 1995-07-29 03:00:00 TS 26.1350 -87.6224 main 355 334 P_____________ AL041995 26.1350 -87.6224 TD 30 1008 -1 5 281
1995210N26273 1995 37 NA GM DEAN 1995-07-29 06:00:00 TS 26.2000 -87.9000 30 1008 hurdat_atl main 334 327 O_____________ hurdat_atl AL041995 26.2000 -87.9000 TD 30 1008 -1 4 285
1995210N26273 1995 37 NA GM DEAN 1995-07-29 09:00:00 TS 26.2421 -88.0627 main 327 311 P_____________ AL041995 26.2421 -88.0627 TD 30 1008 -1 4 286
1995210N26273 1995 37 NA GM DEAN 1995-07-29 12:00:00 TS 26.3000 -88.3000 30 1008 hurdat_atl main 311 291 O_____________ hurdat_atl AL041995 26.3000 -88.3000 TD 30 1008 -1 7 282
1995210N26273 1995 37 NA GM DEAN 1995-07-29 15:00:00 TS 26.3777 -88.7902 main 291 279 P_____________ AL041995 26.3777 -88.7902 TD 30 1007 -1 10 281
1995210N26273 1995 37 NA GM DEAN 1995-07-29 18:00:00 TS 26.5000 -89.4000 30 1007 hurdat_atl main 280 268 O_____________ hurdat_atl AL041995 26.5000 -89.4000 TD 30 1007 -1 11 285
1995210N26273 1995 37 NA GM DEAN 1995-07-29 21:00:00 TS 26.6624 -90.0003 main 268 245 P_____________ AL041995 26.6624 -90.0003 TD 30 1007 -1 11 290
1995210N26273 1995 37 NA GM DEAN 1995-07-30 00:00:00 TS 26.9000 -90.6000 30 1007 hurdat_atl main 245 212 O_____________ hurdat_atl AL041995 26.9000 -90.6000 TD 30 1007 -1 12 300
1995210N26273 1995 37 NA GM DEAN 1995-07-30 03:00:00 TS 27.2420 -91.1425 main 213 180 P_____________ AL041995 27.2420 -91.1425 TD 30 1006 -1 12 306
1995210N26273 1995 37 NA GM DEAN 1995-07-30 06:00:00 TS 27.6000 -91.7000 30 1006 hurdat_atl main 184 178 O_____________ hurdat_atl AL041995 27.6000 -91.7000 TD 30 1006 -1 12 300
1995210N26273 1995 37 NA GM DEAN 1995-07-30 09:00:00 TS 27.8652 -92.3578 main 178 166 P_____________ AL041995 27.8652 -92.3578 TD 30 1005 -1 13 294
1995210N26273 1995 37 NA GM DEAN 1995-07-30 12:00:00 TS 28.1000 -93.0000 30 1005 hurdat_atl main 170 158 O_____________ hurdat_atl AL041995 28.1000 -93.0000 TD 30 1005 -1 11 296
1995210N26273 1995 37 NA GM DEAN 1995-07-30 15:00:00 TS 28.3570 -93.5228 main 148 116 P_____________ AL041995 28.3570 -93.5228 TD 32 1004 -1 10 300
1995210N26273 1995 37 NA GM DEAN 1995-07-30 18:00:00 TS 28.6000 -94.0000 35 1003 hurdat_atl main 116 67 O_____________ hurdat_atl AL041995 28.6000 -94.0000 TS 35 1003 0 10 296
1995210N26273 1995 37 NA GM DEAN 1995-07-30 21:00:00 TS 28.7831 -94.5120 main 67 19 P_____________ AL041995 28.7831 -94.5120 TS 37 1001 0 10 295
1995210N26273 1995 37 NA GM DEAN 1995-07-31 00:00:00 TS 29.0000 -95.0000 40 999 hurdat_atl main 19 0 O_____________ hurdat_atl AL041995 29.0000 -95.0000 TS 40 999 0 10 301
1995210N26273 1995 37 NA NA DEAN 1995-07-31 02:00:00 TS 29.2000 -95.3000 40 999 hurdat_atl main 0 0 O_____________ hurdat_atl AL041995 29.2000 -95.3000 L TS 40 999 0 9 310
1995210N26273 1995 37 NA NA DEAN 1995-07-31 03:00:00 TS 29.2841 -95.3868 main 0 0 P_____________ AL041995 29.2841 -95.3868 TS 37 999 0 5 330
1995210N26273 1995 37 NA NA DEAN 1995-07-31 06:00:00 TS 29.5000 -95.5000 30 1002 hurdat_atl main 0 0 O_____________ hurdat_atl AL041995 29.5000 -95.5000 TD 30 1002 -1 6 327
1995210N26273 1995 37 NA NA DEAN 1995-07-31 09:00:00 TS 29.7455 -95.7318 main 0 0 P_____________ AL041995 29.7455 -95.7318 TD 27 1002 -1 7 319
1995210N26273 1995 37 NA NA DEAN 1995-07-31 12:00:00 TS 30.0000 -96.0000 25 1003 hurdat_atl main 0 0 O_____________ hurdat_atl AL041995 30.0000 -96.0000 TD 25 1003 -1 6 316
1995210N26273 1995 37 NA NA DEAN 1995-07-31 15:00:00 TS 30.2125 -96.2504 main 0 0 P_____________ AL041995 30.2125 -96.2504 TD 22 1003 -1 7 319
1995210N26273 1995 37 NA NA DEAN 1995-07-31 18:00:00 TS 30.5000 -96.5000 20 1003 hurdat_atl main 0 0 O_____________ hurdat_atl AL041995 30.5000 -96.5000 TD 20 1003 -1 9 331
1995210N26273 1995 37 NA NA DEAN 1995-07-31 21:00:00 TS 31.0000 -96.7497 main 0 0 P_____________ AL041995 31.0000 -96.7497 TD 20 1003 -1 11 337
1995210N26273 1995 37 NA NA DEAN 1995-08-01 00:00:00 TS 31.5000 -97.0000 20 1004 hurdat_atl main 0 0 O_____________ hurdat_atl AL041995 31.5000 -97.0000 TD 20 1004 -1 9 332
1995210N26273 1995 37 NA NA DEAN 1995-08-01 03:00:00 TS 31.7496 -97.2138 main 0 0 P_____________ AL041995 31.7496 -97.2138 TD 20 1004 -1 7 320
1995210N26273 1995 37 NA NA DEAN 1995-08-01 06:00:00 TS 32.0000 -97.5000 20 1004 hurdat_atl main 0 0 O_____________ hurdat_atl AL041995 32.0000 -97.5000 TD 20 1004 -1 11 319
1995210N26273 1995 37 NA NA DEAN 1995-08-01 09:00:00 TS 32.5383 -98.0354 main 0 0 P_____________ AL041995 32.5383 -98.0354 TD 20 1004 -1 13 320
1995210N26273 1995 37 NA NA DEAN 1995-08-01 12:00:00 TS 33.0000 -98.5000 20 1004 hurdat_atl main 0 0 O_____________ hurdat_atl AL041995 33.0000 -98.5000 TD 20 1004 -1 7 320
1995210N26273 1995 37 NA NA DEAN 1995-08-01 15:00:00 TS 33.0747 -98.5759 main 0 0 P_____________ AL041995 33.0747 -98.5759 TD 20 1004 -1 0 0
1995210N26273 1995 37 NA NA DEAN 1995-08-01 18:00:00 TS 33.0000 -98.5000 20 1004 hurdat_atl main 0 0 O_____________ hurdat_atl AL041995 33.0000 -98.5000 TD 20 1004 -1 1 135
1995210N26273 1995 37 NA NA DEAN 1995-08-01 21:00:00 TS 33.0000 -98.5000 main 0 0 P_____________ AL041995 33.0000 -98.5000 TD 20 1004 -1 0 0
1995210N26273 1995 37 NA NA DEAN 1995-08-02 00:00:00 TS 33.0000 -98.5000 20 1004 hurdat_atl main 0 0 O_____________ hurdat_atl AL041995 33.0000 -98.5000 TD 20 1004 -1 0 0
1995210N26273 1995 37 NA NA DEAN 1995-08-02 03:00:00 TS 33.0000 -98.5000 main 0 0 P_____________ AL041995 33.0000 -98.5000 TD 20 1004 -1 0 0
1995210N26273 1995 37 NA NA DEAN 1995-08-02 06:00:00 TS 33.0000 -98.5000 20 1004 hurdat_atl main 0 0 O_____________ hurdat_atl AL041995 33.0000 -98.5000 TD 20 1004 -1 0 0
1995210N26273 1995 37 NA NA DEAN 1995-08-02 09:00:00 TS 33.0000 -98.5000 main 0 0 P_____________ AL041995 33.0000 -98.5000 TD 20 1004 -1 0 0
1995210N26273 1995 37 NA NA DEAN 1995-08-02 12:00:00 TS 33.0000 -98.5000 20 1004 hurdat_atl main 0 0 O_____________ hurdat_atl AL041995 33.0000 -98.5000 TD 20 1004 -1 0 0
1995210N26273 1995 37 NA NA DEAN 1995-08-02 15:00:00 TS 33.0000 -98.5000 main 0 0 P_____________ AL041995 33.0000 -98.5000 TD 20 1004 -1 0 0
1995210N26273 1995 37 NA NA DEAN 1995-08-02 18:00:00 TS 33.0000 -98.5000 20 1004 hurdat_atl main 0 O_____________ hurdat_atl AL041995 33.0000 -98.5000 TD 20 1004 -1 0 0

About IBTrACS Database

This database is a web-friendly format of International Best Track Archive for Climate Stewardship (IBTrACS), a global best track data archive curated by NOAA dating back to 1842.

Updated: 2021-10-25